Aérodrome :
LOGIN :

S'inscrire | Disclaimer

   EN    FR    IT 

 










Légende :    VFR   VFR Marginal   IFR   IFR Intensif   IFR Très Intensif
Visi : 
Plafond : 
>= 8 km
>= 3000ft
5 à 8 km
1000 à 3000 ft
1500m à 5 km
500 à 1000 ft
800 à 1500m
200 à 500 ft
< 800m
< 200 ft
Symboles :   Orages  Brouillard  Fortes neiges  Fortes précipitations  Vent > 20 kt
SIGMETs :   Divers  Orages  Givrage  Turbulence  Onde Orograph.  Cendres Volcan.







- Altitude de l'aérodrome : 458 ft
- Voir les cartes d'approche


LFSI - St-Dizier

DERNIER METAR :
  • 190730Z AUTO 36004KT 320V040 CAVOK 23/13 Q1017

METARs EXPIRÉS :
  • 190700Z AUTO 02004KT 340V070 9999 4200 NSC 22/12 Q1017
  • 190630Z AUTO VRB03KT 9999 3300 NSC 20/12 Q1017
  • 190600Z AUTO VRB02KT CAVOK 19/12 Q1017
  • 190530Z AUTO VRB01KT CAVOK 18/12 Q1017
  • 190500Z AUTO 00000KT CAVOK 16/12 Q1017

TAF TAF LFSI
Valide du 19 à 03h jusqu'au 20 à 03h UTC


190200Z 1903/2003 02003KT CAVOK
Pas de NOTAMs connus pour ce terrain.



MET'MAP, la Météo Aéronautique d'un coup d'oeil ! - Copyright ORBIFLY Décembre 2007 - Disclaimer

ORBIFLY MET'MAP TEAM :

Programmation & Développement : Alexandra Zaïnal
Conception & Développement : Baudouin d'Aumeries
Co-Programmation & Développement : Marc-Olivier Méhu
Soutien technique & logistique : Manuel Goepfert

Contact : metmap@orbifly.com




SOURCES & CREDITS :

   NOAA